Time;durP1;ratioP1;P1;durP2;ratioP2;P2;SDS_P1;SDS_P2;PMS_P1;PMS_P2;Temp;Humidity;BMP_temperature;BMP_pressure;BME280_temperature;BME280_humidity;BME280_pressure;Samples;Min_cycle;Max_cycle;Signal;HPM_P1;HPM_P2
2022/03/09 00:02:10;;;;;;;21.83;15.20;;;;;;;4.60;43.33;102031.16;5103626;28;20027;-69
2022/03/09 00:04:35;;;;;;;18.73;14.88;;;;;;;4.62;43.94;102022.34;5100582;28;20020;-69
2022/03/09 00:07:04;;;;;;;18.33;13.60;;;;;;;4.69;42.67;102031.84;5076826;28;20030;-69
2022/03/09 00:09:30;;;;;;;20.33;13.07;;;;;;;4.49;43.62;102021.69;5086853;28;20023;-69
2022/03/09 00:11:55;;;;;;;19.58;13.20;;;;;;;4.59;43.76;102034.66;5104810;28;20559;-69
2022/03/09 00:14:21;;;;;;;15.93;12.88;;;;;;;4.62;43.53;102026.72;5103006;28;20019;-69
2022/03/09 00:16:47;;;;;;;15.60;12.75;;;;;;;4.62;42.82;102034.59;5102400;28;20024;-69
2022/03/09 00:19:15;;;;;;;15.48;13.15;;;;;;;4.71;43.61;102042.38;5093914;28;20031;-69
2022/03/09 00:21:41;;;;;;;17.23;11.80;;;;;;;4.68;41.94;102038.03;5091682;28;20027;-69
2022/03/09 00:24:07;;;;;;;17.10;12.38;;;;;;;4.68;42.99;102039.78;5091278;28;20039;-69
2022/03/09 00:26:32;;;;;;;16.33;11.98;;;;;;;4.70;42.06;102040.59;5097207;28;20058;-69
2022/03/09 00:28:57;;;;;;;17.50;12.30;;;;;;;4.69;42.29;102041.50;5076918;28;20115;-69
2022/03/09 00:31:23;;;;;;;14.90;12.35;;;;;;;4.78;41.51;102038.69;5068116;28;20047;-69
2022/03/09 00:33:51;;;;;;;15.63;12.30;;;;;;;4.80;41.57;102046.59;5088212;28;20390;-69
2022/03/09 00:36:16;;;;;;;16.55;11.68;;;;;;;4.75;41.19;102042.25;5086388;28;20024;-69
2022/03/09 00:38:42;;;;;;;17.27;12.05;;;;;;;4.80;41.21;102044.81;5063731;28;20435;-69
2022/03/09 00:41:07;;;;;;;18.00;12.70;;;;;;;4.67;42.90;102038.91;5073930;28;20460;-69
2022/03/09 00:43:33;;;;;;;14.32;12.00;;;;;;;4.73;42.31;102049.31;5100389;28;20027;-69
2022/03/09 00:45:59;;;;;;;16.15;12.23;;;;;;;4.66;42.37;102047.72;5075850;28;20073;-69
2022/03/09 00:48:27;;;;;;;17.13;12.18;;;;;;;4.61;43.51;102046.91;5091297;28;20099;-69
2022/03/09 00:50:52;;;;;;;16.40;13.25;;;;;;;4.65;43.45;102051.25;5075444;28;20063;-69
2022/03/09 00:53:18;;;;;;;14.43;11.27;;;;;;;4.50;43.13;102040.97;5081354;28;20495;-69
2022/03/09 00:55:44;;;;;;;13.57;12.00;;;;;;;4.64;43.21;102044.22;5099297;28;20024;-69
2022/03/09 00:58:11;;;;;;;16.88;12.98;;;;;;;4.48;43.37;102037.53;5062835;28;20024;-69
2022/03/09 01:00:38;;;;;;;15.40;11.90;;;;;;;4.49;42.81;102047.16;5082862;28;20501;-69
2022/03/09 01:03:08;;;;;;;15.73;12.02;;;;;;;4.29;44.41;102045.78;5091804;28;20024;-68
2022/03/09 01:05:36;;;;;;;;;;;;;;;4.51;42.01;102051.50;5085395;28;20031;-68
2022/03/09 01:08:01;;;;;;;14.45;11.60;;;;;;;4.19;44.33;102043.31;5103881;28;20016;-69
2022/03/09 01:10:27;;;;;;;19.35;12.57;;;;;;;4.05;44.55;102039.13;5075693;28;20157;-69
2022/03/09 01:12:55;;;;;;;14.75;11.93;;;;;;;3.90;44.99;102022.75;5101104;28;20043;-69
2022/03/09 01:15:21;;;;;;;15.27;12.18;;;;;;;3.96;44.53;102033.16;5080561;28;20023;-69
2022/03/09 01:17:46;;;;;;;13.73;12.30;;;;;;;3.93;45.34;102043.75;5087476;28;20035;-69
2022/03/09 01:20:12;;;;;;;13.75;11.63;;;;;;;3.77;45.50;102044.00;5068337;28;20027;-69
2022/03/09 01:22:37;;;;;;;15.02;11.95;;;;;;;3.68;46.23;102040.63;5106127;28;20663;-68
2022/03/09 01:25:04;;;;;;;17.30;12.35;;;;;;;3.69;46.12;102039.75;5099757;28;20031;-69
2022/03/09 01:27:30;;;;;;;16.23;12.90;;;;;;;3.62;45.95;102037.22;5082739;28;20034;-68
2022/03/09 01:29:56;;;;;;;16.25;12.23;;;;;;;3.46;46.75;102038.31;5095090;28;20478;-69
2022/03/09 01:32:22;;;;;;;20.17;12.27;;;;;;;3.49;46.73;102040.88;5096431;28;20016;-68
2022/03/09 01:34:51;;;;;;;19.73;12.70;;;;;;;3.39;46.53;102024.38;5078104;28;20036;-68
2022/03/09 01:37:19;;;;;;;18.33;12.37;;;;;;;3.47;46.33;102042.69;5093780;28;20042;-68
2022/03/09 01:39:45;;;;;;;16.27;13.02;;;;;;;3.40;46.57;102031.38;5092039;28;20035;-68
2022/03/09 01:42:11;;;;;;;15.77;13.05;;;;;;;3.37;46.41;102035.81;5103895;28;20038;-68
2022/03/09 01:44:36;;;;;;;16.80;12.70;;;;;;;3.53;46.59;102037.34;5079323;28;20387;-68
2022/03/09 01:47:03;;;;;;;17.38;12.82;;;;;;;3.51;46.54;102033.84;5083467;28;20038;-68
2022/03/09 01:49:28;;;;;;;14.52;11.82;;;;;;;3.51;46.15;102030.38;5080083;28;20093;-68
2022/03/09 01:51:58;;;;;;;15.60;12.27;;;;;;;3.44;46.64;102034.81;5103215;28;20429;-68
2022/03/09 01:54:24;;;;;;;19.77;13.47;;;;;;;3.40;46.48;102031.38;5076734;28;20023;-68
2022/03/09 01:56:50;;;;;;;17.95;13.13;;;;;;;3.44;46.43;102031.31;5101797;28;20024;-68
2022/03/09 01:59:18;;;;;;;19.63;12.27;;;;;;;3.28;46.93;102023.66;5092183;28;20509;-69
2022/03/09 02:01:46;;;;;;;17.17;12.98;;;;;;;3.28;46.76;102023.66;5090149;28;20479;-68
2022/03/09 02:04:12;;;;;;;16.13;12.13;;;;;;;3.40;45.48;102025.25;5072245;28;20452;-68
2022/03/09 02:06:39;;;;;;;13.73;12.18;;;;;;;3.38;46.19;102022.66;5072394;28;20036;-68
2022/03/09 02:11:51;;;;;;;18.08;12.20;;;;;;;3.52;44.76;102021.56;5094361;28;20038;-68
2022/03/09 02:14:36;;;;;;;20.13;12.15;;;;;;;3.56;45.00;102025.88;5108185;28;20099;-68
2022/03/09 02:17:10;;;;;;;15.32;12.70;;;;;;;3.60;44.50;102027.59;5100346;28;20038;-68
2022/03/09 02:19:37;;;;;;;18.48;12.35;;;;;;;3.63;44.85;102027.53;5105081;28;20016;-68
2022/03/09 02:22:23;;;;;;;16.65;12.40;;;;;;;3.67;44.72;102031.84;5093191;28;20093;-68
2022/03/09 02:24:52;;;;;;;18.02;12.75;;;;;;;3.58;45.49;102032.88;5076900;28;20032;-68
2022/03/09 02:27:20;;;;;;;16.58;12.85;;;;;;;3.48;45.67;102036.53;5075246;28;20101;-68
2022/03/09 02:29:47;;;;;;;16.60;12.93;;;;;;;3.52;45.28;102025.06;5090838;28;20035;-68
2022/03/09 02:32:15;;;;;;;17.60;12.68;;;;;;;3.48;45.76;102022.53;5083043;28;20054;-68
2022/03/09 02:34:40;;;;;;;21.13;12.65;;;;;;;3.48;45.29;102019.88;5089436;28;20027;-68
2022/03/09 02:37:06;;;;;;;17.67;13.18;;;;;;;3.42;45.76;102023.47;5084396;28;20074;-68
2022/03/09 02:39:32;;;;;;;16.00;13.02;;;;;;;3.35;46.26;102025.34;5085991;28;20445;-68
2022/03/09 02:41:57;;;;;;;17.65;12.63;;;;;;;3.28;46.31;102023.66;5076572;28;20035;-68
2022/03/09 02:44:23;;;;;;;15.25;12.75;;;;;;;3.21;46.93;102015.88;5078666;28;20050;-68
2022/03/09 02:46:48;;;;;;;15.18;12.68;;;;;;;3.09;47.01;102004.66;5111845;28;20489;-68
2022/03/09 02:49:15;;;;;;;18.15;13.32;;;;;;;3.05;47.18;102007.34;5107723;28;20019;-68
2022/03/09 02:51:41;;;;;;;18.05;13.23;;;;;;;2.96;47.06;102003.94;5081214;28;20028;-68
2022/03/09 02:54:06;;;;;;;17.27;13.80;;;;;;;3.05;46.70;101999.44;5101937;28;20502;-68
2022/03/09 02:56:32;;;;;;;17.05;13.35;;;;;;;2.86;47.42;102001.47;5095825;28;20387;-69
2022/03/09 02:58:57;;;;;;;16.13;13.00;;;;;;;2.84;47.76;102003.22;5082497;28;20129;-69
2022/03/09 03:01:23;;;;;;;16.50;13.63;;;;;;;2.98;46.79;101997.81;5108114;28;20513;-68
2022/03/09 03:03:51;;;;;;;16.83;13.10;;;;;;;3.01;46.69;102001.25;5111353;28;20035;-68
2022/03/09 03:06:17;;;;;;;19.00;13.55;;;;;;;3.12;46.53;101999.34;5084773;28;20035;-68
2022/03/09 03:08:43;;;;;;;17.48;13.20;;;;;;;3.07;46.94;102001.16;5113448;28;20012;-68
2022/03/09 03:11:10;;;;;;;17.20;13.10;;;;;;;3.07;47.24;102010.81;5082277;28;20129;-68
2022/03/09 03:13:37;;;;;;;17.98;13.27;;;;;;;3.03;46.87;102003.84;5078927;28;20085;-68
2022/03/09 03:16:07;;;;;;;17.63;13.50;;;;;;;3.09;47.00;102009.91;5102917;28;20473;-68
2022/03/09 03:18:33;;;;;;;20.27;13.13;;;;;;;2.91;47.52;102003.13;5101026;28;20047;-68
2022/03/09 03:20:59;;;;;;;17.88;13.32;;;;;;;2.90;47.27;102009.25;5108253;28;20028;-68
2022/03/09 03:23:27;;;;;;;20.67;13.85;;;;;;;2.92;46.97;102014.50;5099247;28;20016;-68
2022/03/09 03:25:53;;;;;;;17.45;12.85;;;;;;;2.92;47.41;102015.38;5075262;28;20020;-68
2022/03/09 03:28:20;;;;;;;18.15;13.27;;;;;;;2.88;47.55;102013.69;5094678;28;20020;-68
2022/03/09 03:30:46;;;;;;;17.15;13.43;;;;;;;2.72;47.36;101984.09;5099775;28;20063;-68
2022/03/09 03:33:12;;;;;;;17.40;13.65;;;;;;;2.85;46.65;101997.94;5073639;28;20067;-68
2022/03/09 03:35:38;;;;;;;20.38;13.05;;;;;;;2.86;47.42;102010.19;5092973;28;20066;-68
2022/03/09 03:38:04;;;;;;;15.48;13.07;;;;;;;2.85;47.30;102008.44;5103527;28;20662;-68
2022/03/09 03:40:30;;;;;;;18.95;13.20;;;;;;;2.82;47.89;102005.84;5112097;28;20417;-68
2022/03/09 03:42:55;;;;;;;18.73;13.98;;;;;;;2.75;47.81;102004.19;5110410;28;20529;-68
2022/03/09 03:45:22;;;;;;;18.85;13.98;;;;;;;2.70;47.87;102001.63;5111374;28;20084;-69
2022/03/09 03:47:47;;;;;;;20.40;12.98;;;;;;;2.78;47.63;101998.06;5080528;28;20031;-68
2022/03/09 03:50:13;;;;;;;17.63;14.13;;;;;;;2.74;47.72;102002.47;5105394;28;20058;-68
2022/03/09 03:52:38;;;;;;;21.05;13.70;;;;;;;2.69;47.82;102009.53;5093243;28;20028;-68
2022/03/09 03:55:04;;;;;;;17.52;13.18;;;;;;;2.63;47.77;102010.47;5058945;28;20027;-68
2022/03/09 03:57:30;;;;;;;17.40;13.23;;;;;;;2.60;48.51;102014.91;5104717;28;20047;-68
2022/03/09 03:59:56;;;;;;;18.27;13.90;;;;;;;2.61;47.90;102008.75;5093616;28;20071;-68
2022/03/09 04:02:23;;;;;;;16.10;13.23;;;;;;;2.75;47.93;102011.22;5077309;28;20035;-68
2022/03/09 04:04:50;;;;;;;17.67;13.63;;;;;;;2.69;48.08;102015.66;5076745;28;20474;-68
2022/03/09 04:07:16;;;;;;;17.67;12.98;;;;;;;2.73;48.07;102016.47;5105579;28;20028;-68
2022/03/09 04:09:41;;;;;;;26.17;13.75;;;;;;;2.67;47.63;102012.16;5089469;28;20485;-68
2022/03/09 04:12:07;;;;;;;19.13;12.88;;;;;;;2.64;48.03;102012.19;5096571;28;20432;-68
2022/03/09 04:14:33;;;;;;;19.75;14.05;;;;;;;2.63;48.16;102028.00;5082343;28;20030;-68
2022/03/09 04:17:01;;;;;;;19.50;14.38;;;;;;;2.56;48.44;102011.44;5104882;28;20393;-68
2022/03/09 04:19:29;;;;;;;20.52;13.35;;;;;;;2.55;48.55;102017.56;5109705;28;20035;-68
2022/03/09 04:21:55;;;;;;;16.65;13.35;;;;;;;2.49;48.21;102015.00;5112186;28;20047;-68
2022/03/09 04:24:21;;;;;;;16.42;13.50;;;;;;;2.55;48.14;102006.19;5094246;28;20043;-68
2022/03/09 04:26:47;;;;;;;17.15;13.25;;;;;;;2.47;48.25;102001.91;5092376;28;20035;-68
2022/03/09 04:29:13;;;;;;;17.55;12.60;;;;;;;2.49;48.85;102002.72;5099376;28;20099;-68
2022/03/09 04:31:42;;;;;;;18.80;13.38;;;;;;;2.45;48.93;102001.03;5101204;28;20107;-68
2022/03/09 04:34:07;;;;;;;19.40;13.05;;;;;;;2.54;48.64;101994.81;5077812;28;20024;-68
2022/03/09 04:36:33;;;;;;;18.20;13.50;;;;;;;2.54;48.63;102007.09;5099760;28;20429;-68
2022/03/09 04:38:58;;;;;;;15.75;12.90;;;;;;;2.48;48.73;102000.16;5100965;28;20027;-68
2022/03/09 04:41:26;;;;;;;18.95;12.25;;;;;;;2.47;48.85;102004.53;5078497;28;20475;-68
2022/03/09 04:43:52;;;;;;;18.02;13.27;;;;;;;2.43;48.63;102004.56;5092699;28;20437;-68
2022/03/09 04:46:18;;;;;;;19.00;13.57;;;;;;;2.43;48.90;102007.19;5077389;28;20035;-68
2022/03/09 04:48:44;;;;;;;18.67;13.50;;;;;;;2.37;48.99;102008.13;5079858;28;20047;-68
2022/03/09 04:51:10;;;;;;;21.92;13.18;;;;;;;2.33;49.20;102000.31;5092872;28;20394;-68
2022/03/09 04:53:36;;;;;;;19.90;13.60;;;;;;;2.32;49.01;101999.41;5108242;28;20102;-68
2022/03/09 04:56:01;;;;;;;16.67;13.85;;;;;;;2.28;49.10;101998.59;5088669;28;20122;-68
2022/03/09 04:58:29;;;;;;;16.58;13.52;;;;;;;2.22;49.36;102001.28;5100913;28;20027;-68
2022/03/09 05:00:55;;;;;;;17.42;13.60;;;;;;;2.23;49.16;101995.13;5072899;28;20031;-68
2022/03/09 05:03:20;;;;;;;16.73;13.00;;;;;;;2.21;49.14;101989.03;5098833;28;20160;-68
2022/03/09 05:05:46;;;;;;;20.25;13.70;;;;;;;2.32;48.84;102001.19;5095536;28;20019;-68
2022/03/09 05:08:11;;;;;;;22.10;14.23;;;;;;;2.25;49.39;102001.25;5080114;28;20046;-68
2022/03/09 05:10:38;;;;;;;16.15;12.43;;;;;;;2.27;49.24;102001.25;5097460;28;20023;-68
2022/03/09 05:13:04;;;;;;;18.60;13.02;;;;;;;2.27;48.74;102003.88;5079902;28;20020;-68
2022/03/09 05:15:30;;;;;;;19.23;14.30;;;;;;;2.25;48.93;102005.63;5092833;28;20016;-68
2022/03/09 05:17:56;;;;;;;16.83;13.52;;;;;;;2.23;48.67;102000.38;5075416;28;20124;-68
2022/03/09 05:20:24;;;;;;;19.40;13.32;;;;;;;2.32;48.47;101996.78;5091964;28;20024;-68
2022/03/09 05:22:51;;;;;;;19.27;13.20;;;;;;;2.26;48.94;102008.25;5092609;28;20103;-68
2022/03/09 05:25:22;;;;;;;18.63;13.32;;;;;;;2.18;49.10;102009.22;5101510;28;20034;-68
2022/03/09 05:27:48;;;;;;;19.65;13.73;;;;;;;2.02;48.67;101971.72;5101539;28;20592;-68
2022/03/09 05:30:13;;;;;;;16.30;13.68;;;;;;;2.18;49.25;102004.81;5097722;28;20136;-68
2022/03/09 05:32:41;;;;;;;20.67;14.40;;;;;;;2.17;48.91;102003.06;5106639;28;20394;-68
2022/03/09 05:35:09;;;;;;;16.83;13.05;;;;;;;2.18;49.47;102010.06;5082602;28;20035;-68
2022/03/09 05:37:44;;;;;;;19.98;13.30;;;;;;;2.17;48.79;102017.94;5074443;28;20020;-68
2022/03/09 05:40:10;;;;;;;20.52;14.00;;;;;;;2.10;49.54;102019.75;5105036;28;20050;-68
2022/03/09 05:42:37;;;;;;;18.10;13.82;;;;;;;2.03;49.65;102018.09;5095455;28;20424;-68
2022/03/09 05:45:04;;;;;;;19.58;13.80;;;;;;;1.95;50.15;102010.28;5091165;28;20027;-68
2022/03/09 05:47:30;;;;;;;20.10;14.43;;;;;;;1.97;49.94;102007.63;5089867;28;20471;-68
2022/03/09 05:49:56;;;;;;;20.25;13.48;;;;;;;1.95;49.96;102015.53;5110840;28;20374;-68
2022/03/09 05:52:23;;;;;;;20.58;14.30;;;;;;;1.95;50.07;102018.16;5100934;28;20024;-68
2022/03/09 05:54:50;;;;;;;18.33;13.00;;;;;;;1.95;49.36;102014.66;5064514;28;20031;-68
2022/03/09 05:57:20;;;;;;;20.73;12.82;;;;;;;1.93;49.48;102026.91;5087380;28;20073;-68
2022/03/09 05:59:47;;;;;;;26.55;14.98;;;;;;;2.00;49.35;102039.97;5083867;28;20048;-68
2022/03/09 06:02:13;;;;;;;15.88;13.77;;;;;;;1.87;50.31;102038.31;5103228;28;20025;-68
2022/03/09 06:04:39;;;;;;;17.90;13.90;;;;;;;1.90;50.62;102043.53;5090604;28;20035;-68
2022/03/09 06:07:04;;;;;;;17.95;13.65;;;;;;;1.78;50.59;102046.25;5114833;28;20427;-68
2022/03/09 06:09:30;;;;;;;20.67;14.40;;;;;;;1.72;50.81;102048.94;5109669;28;20543;-68
2022/03/09 06:11:56;;;;;;;18.65;13.82;;;;;;;1.67;51.04;102054.19;5104780;28;20020;-68
2022/03/09 06:14:21;;;;;;;18.48;13.75;;;;;;;1.55;51.72;102046.41;5096446;28;20031;-68
2022/03/09 06:16:49;;;;;;;22.98;14.60;;;;;;;1.52;52.08;102047.28;5078049;28;20052;-68
2022/03/09 06:19:16;;;;;;;19.98;14.00;;;;;;;1.37;51.84;102036.91;5079463;28;20032;-68
2022/03/09 06:21:42;;;;;;;26.98;14.80;;;;;;;1.42;52.13;102044.75;5099601;28;20074;-68
2022/03/09 06:24:08;;;;;;;23.73;14.50;;;;;;;1.32;53.29;102054.41;5108528;28;20024;-68
2022/03/09 06:26:39;;;;;;;21.88;14.88;;;;;;;1.24;53.52;102054.47;5099370;28;20035;-68
2022/03/09 06:29:05;;;;;;;24.90;14.15;;;;;;;1.28;53.50;102058.78;5099285;28;20027;-68
2022/03/09 06:31:31;;;;;;;19.23;15.05;;;;;;;1.27;53.37;102057.06;5101175;28;20076;-68
2022/03/09 06:33:57;;;;;;;22.90;14.33;;;;;;;1.36;52.96;102057.00;5100283;28;20031;-68
2022/03/09 06:36:24;;;;;;;20.38;15.20;;;;;;;1.20;53.89;102062.34;5111686;28;20028;-68
2022/03/09 06:38:51;;;;;;;27.07;15.80;;;;;;;1.24;54.28;102064.94;5096281;28;20398;-68
2022/03/09 06:41:17;;;;;;;22.48;15.00;;;;;;;1.27;54.27;102066.69;5102761;28;20027;-68
2022/03/09 06:43:43;;;;;;;19.35;14.75;;;;;;;1.24;54.14;102066.69;5077120;28;20026;-68
2022/03/09 06:46:08;;;;;;;19.77;15.00;;;;;;;1.33;54.17;102072.75;5087181;28;20032;-68
2022/03/09 06:48:34;;;;;;;24.67;15.63;;;;;;;1.33;53.89;102078.00;5096341;28;20123;-68
2022/03/09 06:51:00;;;;;;;26.02;14.80;;;;;;;1.43;53.36;102091.06;5085579;28;20390;-68
2022/03/09 06:53:28;;;;;;;22.03;14.60;;;;;;;1.44;53.33;102088.44;5098404;28;20023;-68
2022/03/09 06:55:54;;;;;;;22.77;14.60;;;;;;;1.39;54.69;102092.81;5096976;28;20126;-68
2022/03/09 06:58:19;;;;;;;26.03;15.13;;;;;;;1.52;53.37;102093.63;5099440;28;20493;-68
2022/03/09 07:00:45;;;;;;;27.85;15.13;;;;;;;1.50;53.61;102084.88;5079589;28;20603;-68
2022/03/09 07:03:11;;;;;;;20.45;14.75;;;;;;;1.63;53.78;102097.06;5085942;28;20498;-68
2022/03/09 07:05:36;;;;;;;62.08;23.58;;;;;;;1.76;53.18;102093.47;5095039;28;20024;-68
2022/03/09 07:08:02;;;;;;;54.45;21.45;;;;;;;1.92;53.00;102098.63;5083770;28;20056;-68
2022/03/09 07:10:28;;;;;;;25.45;15.38;;;;;;;1.98;50.99;102088.97;5093529;28;20037;-68
2022/03/09 07:12:56;;;;;;;21.45;13.98;;;;;;;2.19;50.72;102097.53;5111536;28;20492;-68
2022/03/09 07:15:22;;;;;;;21.27;14.18;;;;;;;2.36;50.32;102103.53;5075776;28;20020;-68
2022/03/09 07:17:49;;;;;;;24.33;13.88;;;;;;;2.48;49.71;102100.78;5094891;28;20028;-68
2022/03/09 07:20:16;;;;;;;20.73;13.85;;;;;;;2.58;50.68;102111.19;5096305;28;20390;-68
2022/03/09 07:22:43;;;;;;;22.88;13.75;;;;;;;2.79;48.96;102108.34;5077690;28;20031;-68
2022/03/09 07:25:09;;;;;;;19.35;13.32;;;;;;;2.85;48.74;102099.53;5108085;28;20031;-68
2022/03/09 07:27:35;;;;;;;18.50;13.65;;;;;;;3.01;48.01;102098.47;5080924;28;20020;-68
2022/03/09 07:30:02;;;;;;;19.05;13.73;;;;;;;3.11;47.83;102101.88;5092492;28;20086;-68
2022/03/09 07:32:28;;;;;;;19.15;13.02;;;;;;;3.25;46.97;102093.81;5087030;28;20019;-68
2022/03/09 07:34:53;;;;;;;27.58;13.25;;;;;;;3.41;46.80;102101.50;5092917;28;20100;-68
2022/03/09 07:37:21;;;;;;;19.13;13.32;;;;;;;3.49;45.67;102103.16;5070741;28;20077;-68
2022/03/09 07:39:46;;;;;;;19.65;14.52;;;;;;;3.58;45.92;102095.13;5093051;28;20046;-68
2022/03/09 07:42:12;;;;;;;24.08;13.43;;;;;;;3.64;45.58;102093.28;5057991;28;20470;-68
2022/03/09 07:44:37;;;;;;;16.17;12.57;;;;;;;3.75;45.42;102095.75;5087968;28;20035;-68
2022/03/09 07:47:04;;;;;;;21.63;13.65;;;;;;;3.87;44.91;102095.56;5112474;28;20023;-67
2022/03/09 07:49:33;;;;;;;16.63;13.57;;;;;;;4.00;43.49;102087.47;5110038;28;20031;-68
2022/03/09 07:51:59;;;;;;;19.35;13.57;;;;;;;4.10;44.46;102095.22;5099031;28;20103;-68
2022/03/09 07:54:24;;;;;;;23.00;13.88;;;;;;;4.23;43.62;102095.00;5084213;28;20015;-68
2022/03/09 07:56:50;;;;;;;17.48;13.10;;;;;;;4.34;43.77;102098.34;5094486;28;20038;-68
2022/03/09 07:59:16;;;;;;;23.52;14.20;;;;;;;4.41;43.32;102091.19;5090941;28;20078;-68
2022/03/09 08:01:42;;;;;;;19.45;14.32;;;;;;;4.53;43.30;102096.28;5090871;28;20513;-68
2022/03/09 08:04:08;;;;;;;19.92;13.93;;;;;;;4.66;42.60;102102.19;5089741;28;20028;-69
2022/03/09 08:06:34;;;;;;;17.27;13.30;;;;;;;4.85;42.06;102100.06;5075661;28;20270;-69
2022/03/09 08:09:00;;;;;;;17.55;13.32;;;;;;;4.98;42.52;102105.06;5072546;28;20031;-69
2022/03/09 08:11:26;;;;;;;17.30;13.15;;;;;;;5.10;41.83;102103.97;5072254;28;20054;-69
2022/03/09 08:13:52;;;;;;;17.75;13.93;;;;;;;5.23;41.89;102105.47;5072508;28;20119;-69
2022/03/09 08:16:17;;;;;;;20.33;14.15;;;;;;;5.40;41.05;102112.16;5073995;28;20168;-68
2022/03/09 08:18:43;;;;;;;17.17;13.10;;;;;;;5.57;41.06;102122.34;5054280;28;20044;-68
2022/03/09 08:21:08;;;;;;;19.38;13.85;;;;;;;5.69;41.00;102119.44;5078526;28;20024;-68
2022/03/09 08:23:34;;;;;;;19.25;13.10;;;;;;;5.69;40.27;102091.25;5072204;28;20036;-68
2022/03/09 08:25:59;;;;;;;20.27;13.38;;;;;;;6.08;40.42;102120.31;5077004;28;20406;-68
2022/03/09 08:28:25;;;;;;;21.33;14.02;;;;;;;6.22;39.98;102122.63;5070778;28;20036;-69
2022/03/09 08:30:52;;;;;;;21.00;13.35;;;;;;;6.25;39.15;102119.03;5071775;28;20188;-69
2022/03/09 08:33:18;;;;;;;18.20;14.45;;;;;;;6.28;38.90;102121.59;5054537;28;20123;-69
2022/03/09 08:35:43;;;;;;;18.58;14.15;;;;;;;6.39;39.26;102124.00;5070645;28;20036;-69
2022/03/09 08:38:09;;;;;;;20.58;13.95;;;;;;;6.51;39.53;102118.41;5060645;28;20043;-69
2022/03/09 08:40:34;;;;;;;22.15;13.85;;;;;;;6.64;38.67;102121.56;5071214;28;20032;-69
2022/03/09 08:43:00;;;;;;;21.13;14.95;;;;;;;6.72;38.41;102128.41;5071641;28;20541;-69
2022/03/09 08:45:27;;;;;;;24.05;14.93;;;;;;;6.72;38.54;102125.75;5071438;28;20047;-69
2022/03/09 08:47:55;;;;;;;20.55;13.90;;;;;;;6.84;38.22;102121.91;5073864;28;20047;-69
2022/03/09 08:50:21;;;;;;;17.75;13.95;;;;;;;6.92;37.98;102130.53;5077367;28;20059;-69
2022/03/09 08:52:46;;;;;;;21.58;14.45;;;;;;;6.97;37.71;102128.63;5078460;28;20432;-69
2022/03/09 08:55:12;;;;;;;21.05;14.20;;;;;;;7.07;38.29;102131.88;5073507;28;20043;-69
2022/03/09 08:57:38;;;;;;;18.30;14.45;;;;;;;7.08;37.26;102128.31;5090926;28;20085;-69
2022/03/09 09:00:07;;;;;;;22.48;15.00;;;;;;;7.15;37.93;102127.25;5073284;28;20131;-69
2022/03/09 09:02:33;;;;;;;17.03;13.53;;;;;;;7.31;37.96;102121.50;5079865;28;20374;-69
2022/03/09 09:04:58;;;;;;;21.33;14.98;;;;;;;7.36;37.08;102131.06;5071061;28;20037;-69
2022/03/09 09:07:24;;;;;;;20.65;14.60;;;;;;;7.55;36.85;102133.16;5082789;28;20032;-69
2022/03/09 09:09:50;;;;;;;23.50;14.27;;;;;;;7.76;37.04;102129.84;5057941;28;20041;-69
2022/03/09 09:12:19;;;;;;;23.98;15.10;;;;;;;7.74;36.43;102124.63;5085348;28;20028;-69
2022/03/09 09:14:44;;;;;;;19.35;14.60;;;;;;;7.87;36.85;102129.53;5091821;28;20067;-69
2022/03/09 09:17:11;;;;;;;21.33;14.35;;;;;;;7.97;36.25;102126.56;5083404;28;20052;-69
2022/03/09 09:19:37;;;;;;;22.58;14.90;;;;;;;8.07;36.48;102121.81;5091791;28;20020;-70
2022/03/09 09:22:03;;;;;;;20.48;14.57;;;;;;;8.18;36.38;102116.19;5077432;28;20035;-70
2022/03/09 09:24:29;;;;;;;23.50;14.73;;;;;;;8.39;36.09;102118.16;5070085;28;20115;-70
2022/03/09 09:26:55;;;;;;;22.27;14.70;;;;;;;8.51;36.14;102113.34;5082829;28;20111;-71
2022/03/09 09:29:20;;;;;;;23.90;15.15;;;;;;;8.87;35.56;102116.50;5078414;28;20031;-69
2022/03/09 09:31:48;;;;;;;25.20;15.43;;;;;;;8.95;35.30;102116.25;5073566;28;20031;-70
2022/03/09 09:34:15;;;;;;;25.42;15.90;;;;;;;9.01;34.48;102124.84;5089986;28;20410;-70
2022/03/09 09:36:43;;;;;;;23.48;15.63;;;;;;;9.20;34.92;102121.50;5090770;28;20020;-70
2022/03/09 09:39:09;;;;;;;19.77;15.45;;;;;;;9.22;34.93;102103.75;5073536;28;20024;-70
2022/03/09 09:41:36;;;;;;;23.73;15.70;;;;;;;9.41;34.49;102114.53;5089923;28;20038;-70
2022/03/09 09:44:02;;;;;;;23.17;15.43;;;;;;;9.61;34.35;102127.91;5089647;28;20489;-70
2022/03/09 09:46:28;;;;;;;23.10;15.73;;;;;;;9.75;34.41;102119.41;5072579;28;20043;-70
2022/03/09 09:48:53;;;;;;;24.05;16.02;;;;;;;9.93;34.06;102120.47;5068473;28;20028;-70
2022/03/09 09:51:22;;;;;;;21.55;15.15;;;;;;;10.00;33.81;102122.84;5052566;28;20059;-69
2022/03/09 09:53:51;;;;;;;20.92;15.60;;;;;;;10.26;33.81;102117.38;5071231;28;20029;-70
2022/03/09 09:56:20;;;;;;;20.98;15.15;;;;;;;10.39;33.11;102126.63;5073367;28;20048;-70
2022/03/09 09:58:46;;;;;;;26.30;15.63;;;;;;;10.36;33.10;102124.97;5081468;28;20134;-70
2022/03/09 10:01:14;;;;;;;24.27;14.88;;;;;;;10.74;33.58;102117.16;5099612;28;20032;-70
2022/03/09 10:03:42;;;;;;;25.73;16.05;;;;;;;10.80;32.70;102116.03;5056295;28;20490;-70
2022/03/09 10:06:07;;;;;;;21.83;15.98;;;;;;;11.18;32.65;102124.97;5090611;28;20032;-70
2022/03/09 10:08:32;;;;;;;23.63;15.30;;;;;;;11.47;32.31;102115.66;5073031;28;20101;-70
2022/03/09 10:11:01;;;;;;;24.20;15.85;;;;;;;11.52;32.38;102118.06;5095333;28;20406;-70
2022/03/09 10:13:31;;;;;;;27.27;17.33;;;;;;;11.67;31.70;102105.84;5091066;28;20393;-70
2022/03/09 10:16:12;;;;;;;28.90;16.70;;;;;;;12.11;32.10;102113.53;5110085;28;20024;-70
2022/03/09 10:18:38;;;;;;;26.45;17.13;;;;;;;11.98;31.43;102114.13;5092931;28;20038;-70
2022/03/09 10:21:09;;;;;;;23.42;16.27;;;;;;;11.97;32.39;102109.75;5087051;28;20063;-71
2022/03/09 10:23:50;;;;;;;27.00;17.35;;;;;;;12.21;31.66;102109.47;5093181;28;20020;-71
2022/03/09 10:26:17;;;;;;;31.35;17.48;;;;;;;12.04;31.05;102099.63;5098210;28;20028;-71
2022/03/09 10:28:59;;;;;;;27.63;17.73;;;;;;;12.43;31.29;102099.44;5084081;28;20074;-71
2022/03/09 10:31:32;;;;;;;25.65;16.45;;;;;;;12.70;31.36;102099.81;5101748;28;20027;-72
2022/03/09 10:34:12;;;;;;;26.95;18.17;;;;;;;12.76;30.60;102095.09;5109971;28;20046;-71
2022/03/09 10:36:52;;;;;;;27.42;16.90;;;;;;;12.88;30.69;102102.47;5110193;28;20073;-71
2022/03/09 10:39:18;;;;;;;30.13;18.73;;;;;;;12.73;30.19;102104.13;5098538;28;20027;-68
2022/03/09 10:41:43;;;;;;;27.88;18.88;;;;;;;12.94;30.17;102105.72;5085340;28;20031;-69
2022/03/09 10:44:13;;;;;;;28.00;19.13;;;;;;;12.95;30.81;102093.22;5079140;28;20444;-69
2022/03/09 10:46:47;;;;;;;30.48;17.90;;;;;;;13.23;30.48;102105.06;5073900;28;20024;-69
2022/03/09 10:49:19;;;;;;;26.13;16.92;;;;;;;13.20;29.93;102100.75;5093281;28;20028;-69
2022/03/09 10:51:52;;;;;;;26.70;18.10;;;;;;;13.41;30.14;102098.75;5096305;28;20046;-69
2022/03/09 10:54:24;;;;;;;25.85;17.00;;;;;;;13.62;30.85;102099.41;5095025;28;20147;-69
2022/03/09 10:57:02;;;;;;;30.13;18.02;;;;;;;13.76;29.35;102095.94;5096255;28;20444;-69
2022/03/09 10:59:27;;;;;;;30.92;19.70;;;;;;;14.02;29.10;102102.47;5104102;28;20044;-69
2022/03/09 11:02:07;;;;;;;27.42;18.08;;;;;;;14.27;30.09;102088.56;5075662;28;20036;-70
2022/03/09 11:04:36;;;;;;;25.08;17.30;;;;;;;15.03;28.53;102091.13;5113817;28;20023;-69
2022/03/09 11:07:02;;;;;;;26.08;17.73;;;;;;;15.38;27.55;102094.28;5078024;28;20158;-69
2022/03/09 11:09:29;;;;;;;27.42;19.58;;;;;;;15.33;27.31;102098.22;5094417;28;20452;-70
2022/03/09 11:11:58;;;;;;;26.60;18.23;;;;;;;15.74;26.86;102089.38;5095736;28;20047;-70
2022/03/09 11:14:26;;;;;;;29.47;18.60;;;;;;;16.14;26.76;102087.59;5088048;28;20031;-70
2022/03/09 11:16:53;;;;;;;28.33;19.27;;;;;;;16.31;26.59;102073.91;5113798;28;20277;-70
2022/03/09 11:19:19;;;;;;;26.80;17.98;;;;;;;16.94;25.88;102090.22;5114168;28;20020;-70